createdAt,value
2023-07-22T00:00:45.327Z,4.15
2023-07-22T00:03:12.494Z,4.00
2023-07-22T00:05:41.374Z,4.50
2023-07-22T00:08:08.274Z,4.57
2023-07-22T00:10:35.400Z,4.15
2023-07-22T00:13:02.412Z,4.22
2023-07-22T00:15:29.114Z,4.38
2023-07-22T00:17:57.141Z,4.63
2023-07-22T00:20:24.732Z,4.03
2023-07-22T00:22:51.649Z,4.30
2023-07-22T00:25:18.496Z,4.10
2023-07-22T00:27:45.199Z,3.85
2023-07-22T00:30:12.170Z,4.10
2023-07-22T00:32:38.976Z,4.20
2023-07-22T00:35:06.649Z,4.15
2023-07-22T00:37:33.980Z,3.97
2023-07-22T00:40:12.979Z,4.13
2023-07-22T00:42:40.737Z,4.15
2023-07-22T00:45:08.339Z,4.90
2023-07-22T00:47:35.720Z,4.45
2023-07-22T00:50:07.788Z,4.35
2023-07-22T00:52:38.636Z,3.80
2023-07-22T00:55:06.501Z,4.20
2023-07-22T00:57:33.246Z,4.30
2023-07-22T00:59:59.963Z,3.88
2023-07-22T01:02:26.865Z,4.15
2023-07-22T01:04:53.686Z,3.60
2023-07-22T01:07:20.973Z,3.92
2023-07-22T01:09:48.053Z,4.13
2023-07-22T01:12:15.209Z,3.85
2023-07-22T01:14:43.239Z,3.70
2023-07-22T01:17:12.482Z,4.05
2023-07-22T01:19:40.125Z,3.97
2023-07-22T01:22:09.258Z,4.05
2023-07-22T01:24:37.166Z,3.83
2023-07-22T01:27:04.601Z,3.90
2023-07-22T01:29:31.392Z,3.83
2023-07-22T01:31:58.020Z,4.00
2023-07-22T01:34:25.977Z,3.80
2023-07-22T01:36:53.290Z,4.20
2023-07-22T01:39:20.340Z,4.03
2023-07-22T01:41:47.210Z,4.38
2023-07-22T01:44:13.960Z,4.05
2023-07-22T01:46:41.199Z,3.60
2023-07-22T01:49:11.163Z,3.92
2023-07-22T01:51:43.876Z,4.18
2023-07-22T01:54:11.585Z,4.10
2023-07-22T01:56:38.453Z,4.05
2023-07-22T01:59:06.425Z,4.50
2023-07-22T02:01:34.062Z,4.00
2023-07-22T02:04:01.082Z,4.10
2023-07-22T02:06:29.361Z,4.32
2023-07-22T02:08:57.137Z,4.22
2023-07-22T02:11:24.154Z,4.20
2023-07-22T02:13:50.935Z,4.40
2023-07-22T02:16:17.879Z,4.10
2023-07-22T02:18:44.715Z,4.18
2023-07-22T02:21:11.409Z,4.35
2023-07-22T02:23:38.110Z,3.95
2023-07-22T02:26:05.400Z,4.57
2023-07-22T02:28:32.386Z,3.95
2023-07-22T02:31:03.538Z,4.32
2023-07-22T02:33:30.329Z,4.60
2023-07-22T02:35:57.129Z,4.32
2023-07-22T02:38:23.946Z,4.10
2023-07-22T02:40:50.758Z,3.95
2023-07-22T02:43:17.654Z,4.63
2023-07-22T02:45:45.378Z,4.38
2023-07-22T02:48:12.373Z,4.32
2023-07-22T02:50:39.106Z,4.40
2023-07-22T02:53:06.874Z,4.93
2023-07-22T02:55:33.599Z,4.60
2023-07-22T02:58:00.478Z,4.30
2023-07-22T03:00:27.540Z,4.50
2023-07-22T03:03:02.121Z,3.97
2023-07-22T03:05:30.818Z,4.18
2023-07-22T03:07:59.138Z,4.17
2023-07-22T03:10:26.861Z,4.30
2023-07-22T03:12:56.722Z,4.18
2023-07-22T03:15:26.976Z,4.70
2023-07-22T03:17:54.832Z,4.63
2023-07-22T03:20:23.064Z,4.32
2023-07-22T03:22:50.236Z,4.70
2023-07-22T03:25:18.501Z,4.20
2023-07-22T03:27:46.233Z,4.40
2023-07-22T03:30:17.846Z,4.10
2023-07-22T03:32:46.405Z,4.60
2023-07-22T03:35:13.383Z,4.40
2023-07-22T03:37:40.916Z,4.28
2023-07-22T03:40:13.335Z,4.70
2023-07-22T03:42:40.145Z,4.78
2023-07-22T03:45:08.676Z,4.50
2023-07-22T03:47:35.469Z,4.78
2023-07-22T03:50:02.540Z,5.03
2023-07-22T03:52:29.360Z,4.57
2023-07-22T03:54:55.967Z,4.22
2023-07-22T03:57:29.816Z,4.40
2023-07-22T03:59:57.088Z,4.55
2023-07-22T04:02:24.520Z,4.45
2023-07-22T04:04:53.007Z,4.20
2023-07-22T04:07:19.713Z,4.30
2023-07-22T04:09:46.483Z,4.00
2023-07-22T04:12:13.179Z,4.45
2023-07-22T04:14:40.189Z,4.80
2023-07-22T04:17:07.228Z,4.40
2023-07-22T04:19:34.287Z,4.55
2023-07-22T04:22:05.087Z,4.55
2023-07-22T04:24:35.161Z,4.07
2023-07-22T04:27:03.644Z,4.93
2023-07-22T04:29:30.447Z,4.38
2023-07-22T04:32:00.507Z,4.35
2023-07-22T04:34:33.558Z,4.45
2023-07-22T04:37:00.372Z,4.30
2023-07-22T04:39:27.588Z,4.03
2023-07-22T04:41:54.623Z,4.45
2023-07-22T04:44:21.662Z,4.65
2023-07-22T04:46:48.558Z,4.10
2023-07-22T04:49:19.103Z,4.10
2023-07-22T04:51:49.125Z,3.75
2023-07-22T04:54:16.325Z,4.30
2023-07-22T04:56:43.645Z,4.40
2023-07-22T04:59:11.134Z,4.60
2023-07-22T05:01:38.383Z,4.38
2023-07-22T05:04:07.040Z,4.03
2023-07-22T05:06:34.193Z,4.05
2023-07-22T05:09:01.249Z,4.25
2023-07-22T05:11:28.030Z,4.75
2023-07-22T05:13:55.285Z,4.47
2023-07-22T05:16:22.554Z,4.10
2023-07-22T05:18:49.613Z,4.05
2023-07-22T05:21:16.492Z,4.07
2023-07-22T05:23:43.320Z,4.60
2023-07-22T05:26:10.013Z,4.78
2023-07-22T05:28:36.729Z,4.50
2023-07-22T05:31:03.572Z,4.25
2023-07-22T05:33:30.404Z,4.45
2023-07-22T05:35:57.372Z,4.70
2023-07-22T05:38:24.032Z,4.85
2023-07-22T05:40:50.792Z,4.68
2023-07-22T05:43:17.514Z,4.35
2023-07-22T05:45:44.174Z,4.40
2023-07-22T05:48:10.895Z,4.13
2023-07-22T05:50:37.866Z,4.28
2023-07-22T05:53:04.793Z,4.50
2023-07-22T05:55:31.822Z,4.68
2023-07-22T05:57:58.651Z,4.70
2023-07-22T06:00:25.474Z,4.63
2023-07-22T06:02:52.469Z,4.30
2023-07-22T06:05:19.369Z,4.60
2023-07-22T06:07:46.005Z,4.75
2023-07-22T06:10:12.942Z,4.65
2023-07-22T06:12:39.859Z,4.80
2023-07-22T06:15:08.000Z,5.05
2023-07-22T06:17:35.181Z,4.70
2023-07-22T06:20:02.588Z,4.68
2023-07-22T06:22:29.248Z,5.30
2023-07-22T06:24:56.042Z,4.97
2023-07-22T06:27:23.398Z,5.53
2023-07-22T06:29:50.048Z,4.78
2023-07-22T06:32:16.892Z,4.82
2023-07-22T06:34:43.609Z,4.55
2023-07-22T06:37:10.355Z,4.68
2023-07-22T06:39:36.997Z,4.70
2023-07-22T06:42:03.957Z,4.80
2023-07-22T06:44:31.264Z,4.00
2023-07-22T06:46:58.873Z,5.30
2023-07-22T06:49:25.771Z,4.60
2023-07-22T06:51:53.184Z,4.53
2023-07-22T06:54:20.006Z,5.00
2023-07-22T06:56:46.872Z,4.55
2023-07-22T06:59:13.703Z,5.22
2023-07-22T07:01:40.608Z,4.43
2023-07-22T07:04:07.535Z,4.65
2023-07-22T07:06:34.313Z,4.57
2023-07-22T07:09:01.717Z,5.25
2023-07-22T07:11:30.360Z,4.60
2023-07-22T07:13:57.188Z,4.47
2023-07-22T07:16:26.880Z,4.63
2023-07-22T07:18:55.693Z,4.65
2023-07-22T07:21:23.304Z,4.68
2023-07-22T07:23:50.588Z,4.75
2023-07-22T07:26:17.364Z,4.25
2023-07-22T07:28:44.392Z,4.75
2023-07-22T07:31:11.625Z,4.25
2023-07-22T07:33:38.399Z,4.90
2023-07-22T07:36:05.844Z,4.57
2023-07-22T07:38:32.946Z,4.40
2023-07-22T07:41:01.734Z,4.05
2023-07-22T07:43:28.994Z,4.25
2023-07-22T07:46:23.344Z,4.00
2023-07-22T07:48:52.468Z,3.97
2023-07-22T07:51:21.172Z,3.90
2023-07-22T07:53:48.403Z,4.13
2023-07-22T07:56:16.871Z,3.88
2023-07-22T07:58:44.808Z,4.22
2023-07-22T08:01:11.472Z,3.83
2023-07-22T08:03:40.162Z,4.47
2023-07-22T08:06:07.836Z,4.07
2023-07-22T08:08:34.926Z,3.95
2023-07-22T08:11:08.740Z,4.03
2023-07-22T08:13:37.223Z,3.90
2023-07-22T08:16:08.954Z,3.75
2023-07-22T08:18:36.868Z,3.80
2023-07-22T08:21:04.938Z,3.72
2023-07-22T08:23:32.001Z,3.72
2023-07-22T08:25:58.589Z,3.58
2023-07-22T08:28:25.654Z,3.53
2023-07-22T08:30:56.014Z,3.50
2023-07-22T08:33:35.593Z,3.05
2023-07-22T08:36:07.707Z,3.05
2023-07-22T08:38:34.538Z,2.90
2023-07-22T08:41:01.348Z,3.05
2023-07-22T08:43:30.079Z,3.45
2023-07-22T08:46:02.011Z,3.10
2023-07-22T08:48:34.422Z,2.88
2023-07-22T08:51:20.302Z,2.60
2023-07-22T08:54:00.835Z,2.97
2023-07-22T08:56:36.878Z,2.58
2023-07-22T08:59:06.389Z,3.05
2023-07-22T09:01:34.240Z,3.22
2023-07-22T09:04:01.142Z,2.97
2023-07-22T09:06:28.533Z,2.70
2023-07-22T09:08:56.235Z,3.10
2023-07-22T09:11:23.481Z,2.58
2023-07-22T09:13:51.599Z,2.80
2023-07-22T09:16:19.719Z,2.50
2023-07-22T09:18:46.569Z,2.58
2023-07-22T09:21:13.227Z,2.60
2023-07-22T09:23:40.079Z,2.60
2023-07-22T09:26:10.869Z,2.65
2023-07-22T09:28:57.058Z,2.70
2023-07-22T09:31:26.217Z,2.65
2023-07-22T09:33:56.957Z,2.40
2023-07-22T09:36:23.765Z,2.30
2023-07-22T09:39:05.287Z,2.10
2023-07-22T09:41:32.390Z,2.15
2023-07-22T09:44:04.333Z,2.40
2023-07-22T09:46:35.704Z,2.55
2023-07-22T09:49:09.120Z,2.45
2023-07-22T09:51:52.959Z,2.22
2023-07-22T09:54:30.337Z,2.40
2023-07-22T09:56:57.388Z,2.05
2023-07-22T09:59:24.927Z,2.30
2023-07-22T10:01:52.616Z,2.10
2023-07-22T10:04:22.863Z,1.92
2023-07-22T10:06:50.285Z,2.28
2023-07-22T10:09:18.936Z,1.92
2023-07-22T10:11:46.012Z,2.17
2023-07-22T10:14:15.038Z,2.13
2023-07-22T10:19:11.076Z,1.90
2023-07-22T10:21:39.372Z,2.20
2023-07-22T10:24:07.928Z,2.10
2023-07-22T10:26:46.924Z,1.90
2023-07-22T10:29:15.291Z,2.03
2023-07-22T10:31:42.427Z,2.25
2023-07-22T10:34:09.447Z,1.90
2023-07-22T10:36:37.066Z,2.03
2023-07-22T10:39:05.023Z,2.17
2023-07-22T10:41:34.260Z,2.05
2023-07-22T10:46:34.833Z,1.65
2023-07-22T10:49:14.899Z,1.98
2023-07-22T10:51:42.160Z,2.00
2023-07-22T10:54:12.846Z,2.10
2023-07-22T10:56:41.974Z,1.98
2023-07-22T11:01:39.499Z,1.95
2023-07-22T11:04:12.216Z,1.80
2023-07-22T11:06:52.208Z,1.90
2023-07-22T11:09:37.303Z,2.00
2023-07-22T11:12:08.425Z,2.15
2023-07-22T11:14:38.788Z,1.73
2023-07-22T11:17:08.360Z,2.00
2023-07-22T11:19:35.700Z,1.98
2023-07-22T11:22:02.707Z,2.05
2023-07-22T11:24:29.606Z,1.60
2023-07-22T11:26:57.141Z,1.60
2023-07-22T11:29:24.237Z,1.88
2023-07-22T11:31:52.793Z,2.03
2023-07-22T11:34:22.024Z,1.90
2023-07-22T11:39:18.664Z,1.70
2023-07-22T11:41:46.868Z,1.90
2023-07-22T11:44:16.308Z,1.75
2023-07-22T11:47:01.712Z,1.70
2023-07-22T11:49:38.691Z,1.88
2023-07-22T11:52:10.637Z,1.95
2023-07-22T11:54:39.858Z,1.70
2023-07-22T11:57:16.085Z,1.77
2023-07-22T11:59:46.985Z,1.92
2023-07-22T12:02:37.100Z,1.90
2023-07-22T12:05:06.494Z,1.75
2023-07-22T12:07:34.294Z,1.70
2023-07-22T12:10:04.374Z,2.00
2023-07-22T12:12:46.968Z,2.00
2023-07-22T12:15:17.265Z,1.80
2023-07-22T12:17:55.973Z,1.70
2023-07-22T12:20:30.063Z,1.90
2023-07-22T12:22:58.249Z,2.00
2023-07-22T12:25:25.131Z,1.80
2023-07-22T12:27:52.100Z,1.90
2023-07-22T12:30:20.516Z,1.80
2023-07-22T12:32:49.143Z,1.65
2023-07-22T12:35:16.477Z,1.70
2023-07-22T12:37:43.219Z,2.03
2023-07-22T12:40:13.179Z,1.58
2023-07-22T12:42:40.131Z,1.90
2023-07-22T12:45:07.494Z,1.85
2023-07-22T12:47:34.259Z,1.88
2023-07-22T12:50:00.952Z,1.70
2023-07-22T12:52:27.732Z,1.80
2023-07-22T12:54:54.328Z,1.90
2023-07-22T12:57:20.988Z,1.95
2023-07-22T12:59:48.779Z,1.60
2023-07-22T13:02:17.470Z,1.65
2023-07-22T13:04:45.231Z,1.70
2023-07-22T13:07:12.506Z,1.60
2023-07-22T13:09:43.614Z,1.80
2023-07-22T13:12:10.605Z,1.67
2023-07-22T13:14:39.634Z,1.40
2023-07-22T13:17:06.887Z,1.63
2023-07-22T13:19:34.839Z,1.60
2023-07-22T13:22:01.707Z,1.50
2023-07-22T13:24:28.591Z,1.55
2023-07-22T13:26:55.489Z,1.70
2023-07-22T13:29:22.336Z,1.70
2023-07-22T13:31:49.363Z,1.48
2023-07-22T13:34:16.543Z,1.38
2023-07-22T13:36:43.546Z,1.23
2023-07-22T13:39:10.246Z,1.50
2023-07-22T13:41:36.939Z,1.30
2023-07-22T13:44:03.967Z,1.40
2023-07-22T13:46:30.777Z,1.50
2023-07-22T13:48:57.519Z,1.30
2023-07-22T13:51:24.657Z,1.40
2023-07-22T13:53:53.188Z,1.35
2023-07-22T13:56:20.126Z,1.30
2023-07-22T13:58:46.999Z,1.35
2023-07-22T14:01:14.737Z,1.40
2023-07-22T14:03:41.505Z,1.30
2023-07-22T14:06:09.319Z,1.25
2023-07-22T14:08:36.329Z,1.38
2023-07-22T14:11:03.213Z,1.50
2023-07-22T14:13:30.003Z,1.30
2023-07-22T14:16:02.747Z,1.55
2023-07-22T14:21:02.436Z,1.50
2023-07-22T14:23:29.166Z,1.45
2023-07-22T14:25:55.784Z,1.70
2023-07-22T14:28:22.581Z,1.50
2023-07-22T14:30:49.438Z,1.70
2023-07-22T14:33:16.228Z,1.58
2023-07-22T14:35:43.071Z,1.60
2023-07-22T14:38:09.845Z,1.67
2023-07-22T14:40:36.559Z,1.70
2023-07-22T14:43:03.298Z,1.67
2023-07-22T14:45:30.082Z,1.67
2023-07-22T14:47:57.054Z,1.60
2023-07-22T14:50:23.738Z,1.83
2023-07-22T14:52:50.653Z,1.70
2023-07-22T14:55:17.367Z,1.65
2023-07-22T14:57:44.390Z,1.80
2023-07-22T15:00:11.823Z,1.70
2023-07-22T15:02:38.633Z,1.70
2023-07-22T15:05:05.539Z,2.33
2023-07-22T15:07:32.429Z,1.50
2023-07-22T15:10:00.130Z,1.60
2023-07-22T15:12:26.908Z,1.63
2023-07-22T15:14:53.604Z,1.85
2023-07-22T15:17:23.029Z,1.60
2023-07-22T15:19:50.880Z,1.60
2023-07-22T15:22:17.527Z,1.90
2023-07-22T15:24:44.664Z,1.77
2023-07-22T15:27:11.509Z,1.80
2023-07-22T15:29:38.225Z,1.70
2023-07-22T15:32:05.470Z,1.80
2023-07-22T15:34:32.272Z,2.10
2023-07-22T15:36:58.984Z,1.77
2023-07-22T15:39:25.849Z,1.70
2023-07-22T15:41:52.584Z,1.80
2023-07-22T15:44:19.351Z,1.67
2023-07-22T15:46:46.004Z,1.60
2023-07-22T15:49:12.889Z,1.92
2023-07-22T15:51:39.645Z,1.73
2023-07-22T15:54:06.800Z,1.75
2023-07-22T15:56:33.726Z,1.83
2023-07-22T15:59:00.769Z,1.73
2023-07-22T16:01:27.930Z,2.13
2023-07-22T16:03:55.729Z,1.67
2023-07-22T16:06:32.017Z,1.73
2023-07-22T16:08:59.846Z,1.65
2023-07-22T16:11:27.051Z,1.60
2023-07-22T16:13:54.067Z,1.90
2023-07-22T16:16:22.078Z,1.77
2023-07-22T16:18:48.795Z,1.77
2023-07-22T16:21:15.568Z,1.92
2023-07-22T16:23:42.228Z,1.92
2023-07-22T16:26:08.911Z,1.60
2023-07-22T16:28:35.730Z,1.80
2023-07-22T16:31:02.548Z,1.80
2023-07-22T16:33:29.291Z,1.77
2023-07-22T16:35:55.981Z,1.65
2023-07-22T16:38:22.608Z,1.70
2023-07-22T16:40:49.497Z,2.00
2023-07-22T16:43:16.192Z,1.60
2023-07-22T16:45:43.033Z,1.55
2023-07-22T16:48:09.818Z,1.77
2023-07-22T16:50:36.557Z,1.70
2023-07-22T16:53:04.419Z,1.75
2023-07-22T16:55:31.426Z,1.63
2023-07-22T16:57:58.399Z,1.73
2023-07-22T17:00:25.439Z,1.85
2023-07-22T17:02:52.482Z,1.70
2023-07-22T17:05:19.293Z,1.67
2023-07-22T17:07:49.292Z,2.00
2023-07-22T17:10:16.150Z,1.73
2023-07-22T17:12:43.139Z,1.67
2023-07-22T17:15:10.433Z,2.05
2023-07-22T17:17:37.239Z,1.63
2023-07-22T17:20:04.393Z,1.80
2023-07-22T17:22:31.246Z,1.70
2023-07-22T17:24:57.931Z,1.95
2023-07-22T17:27:24.666Z,1.92
2023-07-22T17:29:51.616Z,2.20
2023-07-22T17:32:18.420Z,2.10
2023-07-22T17:34:45.259Z,2.10
2023-07-22T17:37:12.091Z,1.98
2023-07-22T17:39:41.630Z,1.90
2023-07-22T17:42:08.497Z,1.60
2023-07-22T17:44:35.396Z,1.90
2023-07-22T17:47:02.333Z,1.80
2023-07-22T17:49:29.132Z,1.60
2023-07-22T17:51:55.986Z,1.80
2023-07-22T17:54:22.722Z,1.88
2023-07-22T17:56:49.399Z,2.35
2023-07-22T17:59:16.303Z,1.40
2023-07-22T18:01:43.103Z,1.70
2023-07-22T18:04:09.931Z,1.48
2023-07-22T18:06:37.019Z,1.90
2023-07-22T18:09:04.181Z,1.58
2023-07-22T18:11:31.465Z,1.50
2023-07-22T18:13:58.562Z,1.50
2023-07-22T18:16:25.418Z,1.83
2023-07-22T18:18:53.678Z,1.50
2023-07-22T18:21:20.517Z,1.80
2023-07-22T18:23:47.332Z,1.70
2023-07-22T18:26:14.372Z,1.70
2023-07-22T18:28:41.155Z,1.60
2023-07-22T18:31:08.604Z,1.90
2023-07-22T18:33:35.489Z,1.70
2023-07-22T18:36:02.302Z,1.65
2023-07-22T18:38:30.629Z,2.15
2023-07-22T18:40:57.574Z,1.65
2023-07-22T18:43:24.286Z,1.85
2023-07-22T18:45:50.972Z,2.05
2023-07-22T18:48:17.958Z,1.77
2023-07-22T18:50:44.898Z,2.00
2023-07-22T18:53:12.171Z,2.13
2023-07-22T18:55:39.198Z,2.28
2023-07-22T18:58:05.910Z,1.80
2023-07-22T19:00:32.922Z,1.60
2023-07-22T19:02:59.882Z,1.70
2023-07-22T19:05:26.693Z,1.70
2023-07-22T19:07:53.549Z,1.90
2023-07-22T19:10:20.337Z,1.85
2023-07-22T19:12:47.211Z,1.85
2023-07-22T19:15:14.132Z,1.73
2023-07-22T19:17:41.113Z,1.85
2023-07-22T19:20:08.317Z,2.00
2023-07-22T19:22:35.051Z,2.00
2023-07-22T19:25:01.691Z,2.17
2023-07-22T19:27:28.762Z,1.98
2023-07-22T19:29:55.524Z,2.00
2023-07-22T19:32:22.357Z,2.00
2023-07-22T19:34:49.101Z,2.00
2023-07-22T19:37:15.839Z,2.00
2023-07-22T19:39:42.554Z,2.20
2023-07-22T19:42:09.430Z,2.40
2023-07-22T19:44:36.083Z,2.30
2023-07-22T19:47:03.965Z,2.40
2023-07-22T19:49:30.735Z,2.08
2023-07-22T19:51:57.570Z,2.10
2023-07-22T19:54:27.459Z,2.20
2023-07-22T19:56:54.320Z,1.80
2023-07-22T19:59:20.948Z,2.17
2023-07-22T20:01:47.677Z,2.00
2023-07-22T20:04:14.412Z,1.83
2023-07-22T20:06:41.114Z,2.30
2023-07-22T20:09:07.798Z,2.20
2023-07-22T20:11:34.463Z,2.70
2023-07-22T20:14:05.460Z,1.88
2023-07-22T20:16:33.291Z,2.17
2023-07-22T20:19:00.084Z,2.30
2023-07-22T20:21:27.222Z,2.17
2023-07-22T20:23:54.120Z,2.63
2023-07-22T20:26:20.881Z,2.40
2023-07-22T20:28:47.911Z,2.22
2023-07-22T20:31:15.152Z,2.55
2023-07-22T20:33:42.029Z,2.78
2023-07-22T20:36:10.905Z,2.42
2023-07-22T20:38:38.406Z,2.50
2023-07-22T20:41:09.009Z,3.10
2023-07-22T20:43:35.825Z,2.25
2023-07-22T20:46:05.248Z,2.55
2023-07-22T20:48:33.163Z,2.40
2023-07-22T20:50:59.873Z,2.85
2023-07-22T20:53:32.498Z,2.75
2023-07-22T20:56:00.775Z,2.90
2023-07-22T20:58:29.357Z,2.30
2023-07-22T21:01:00.185Z,2.55
2023-07-22T21:03:27.251Z,2.63
2023-07-22T21:05:58.940Z,2.50
2023-07-22T21:08:26.513Z,2.50
2023-07-22T21:10:53.161Z,2.35
2023-07-22T21:13:20.964Z,2.45
2023-07-22T21:15:48.208Z,2.75
2023-07-22T21:18:15.102Z,2.67
2023-07-22T21:20:41.797Z,2.40
2023-07-22T21:23:08.618Z,2.40
2023-07-22T21:25:35.336Z,2.53
2023-07-22T21:28:02.369Z,2.90
2023-07-22T21:30:29.004Z,2.88
2023-07-22T21:32:55.817Z,2.60
2023-07-22T21:35:22.625Z,2.47
2023-07-22T21:37:49.445Z,2.50
2023-07-22T21:40:16.819Z,2.72
2023-07-22T21:42:44.928Z,2.35
2023-07-22T21:45:12.003Z,2.50
2023-07-22T21:47:39.102Z,2.60
2023-07-22T21:50:06.762Z,2.50
2023-07-22T21:52:33.534Z,2.33
2023-07-22T21:55:00.246Z,2.88
2023-07-22T21:57:27.019Z,2.60
2023-07-22T21:59:53.655Z,2.58
2023-07-22T22:02:20.449Z,3.00
2023-07-22T22:04:47.338Z,2.65
2023-07-22T22:07:14.129Z,2.25
2023-07-22T22:09:40.941Z,2.67
2023-07-22T22:12:08.188Z,2.30
2023-07-22T22:14:34.854Z,2.70
2023-07-22T22:17:01.873Z,2.40
2023-07-22T22:19:28.771Z,2.45
2023-07-22T22:21:55.437Z,2.70
2023-07-22T22:24:22.124Z,2.72
2023-07-22T22:26:48.837Z,2.85
2023-07-22T22:29:15.566Z,2.85
2023-07-22T22:31:42.253Z,2.70
2023-07-22T22:34:09.108Z,3.10
2023-07-22T22:36:35.949Z,2.55
2023-07-22T22:39:02.561Z,2.90
2023-07-22T22:41:29.712Z,2.80
2023-07-22T22:43:56.691Z,2.35
2023-07-22T22:46:23.518Z,2.80
2023-07-22T22:48:50.486Z,3.00
2023-07-22T22:51:17.555Z,2.65
2023-07-22T22:53:44.379Z,2.42
2023-07-22T22:56:11.306Z,2.72
2023-07-22T22:58:38.158Z,2.72
2023-07-22T23:01:13.008Z,2.80
2023-07-22T23:03:39.886Z,2.80
2023-07-22T23:06:17.852Z,2.55
2023-07-22T23:08:45.030Z,2.38
2023-07-22T23:11:23.100Z,2.88
2023-07-22T23:13:51.220Z,2.70
2023-07-22T23:16:19.678Z,2.60
2023-07-22T23:18:48.805Z,2.47
2023-07-22T23:23:44.601Z,2.40
2023-07-22T23:26:12.137Z,2.60
2023-07-22T23:28:38.902Z,2.50
2023-07-22T23:31:05.799Z,3.22
2023-07-22T23:33:32.754Z,2.92
2023-07-22T23:36:01.719Z,2.60
2023-07-22T23:40:55.993Z,2.90
2023-07-22T23:43:24.822Z,2.67
2023-07-22T23:45:52.745Z,2.50
2023-07-22T23:48:19.725Z,2.65
2023-07-22T23:50:46.651Z,2.80
2023-07-22T23:53:13.328Z,2.70
2023-07-22T23:55:39.973Z,2.95
2023-07-22T23:58:06.929Z,2.90
